createdAt,value
2018-08-23T00:00:51.919Z,12.57
2018-08-23T00:03:25.720Z,11.70
2018-08-23T00:05:55.242Z,11.13
2018-08-23T00:08:24.471Z,12.30
2018-08-23T00:10:53.847Z,12.70
2018-08-23T00:13:22.829Z,13.13
2018-08-23T00:15:51.642Z,12.93
2018-08-23T00:18:20.185Z,13.60
2018-08-23T00:20:48.692Z,13.37
2018-08-23T00:23:17.281Z,13.63
2018-08-23T00:25:45.748Z,14.57
2018-08-23T00:28:14.238Z,12.50
2018-08-23T00:30:43.557Z,14.47
2018-08-23T00:33:11.997Z,13.73
2018-08-23T00:35:40.545Z,12.33
2018-08-23T00:38:09.206Z,13.30
2018-08-23T00:40:40.665Z,12.90
2018-08-23T00:43:10.466Z,12.80
2018-08-23T00:45:39.057Z,13.43
2018-08-23T00:48:07.566Z,14.27
2018-08-23T00:50:56.084Z,14.47
2018-08-23T00:53:24.714Z,14.73
2018-08-23T00:56:24.066Z,15.87
2018-08-23T00:58:57.801Z,15.53
2018-08-23T01:01:26.414Z,16.47
2018-08-23T01:03:54.855Z,17.43
2018-08-23T01:06:25.382Z,16.20
2018-08-23T01:08:53.831Z,15.20
2018-08-23T01:11:22.269Z,15.07
2018-08-23T01:13:50.709Z,14.23
2018-08-23T01:16:19.143Z,15.03
2018-08-23T01:18:47.641Z,14.00
2018-08-23T01:21:16.153Z,15.00
2018-08-23T01:23:44.589Z,16.33
2018-08-23T01:26:13.135Z,15.30
2018-08-23T01:28:41.589Z,15.90
2018-08-23T01:31:23.452Z,16.27
2018-08-23T01:33:54.877Z,16.50
2018-08-23T01:36:30.933Z,14.67
2018-08-23T01:39:00.105Z,14.87
2018-08-23T01:41:28.583Z,15.67
2018-08-23T01:43:57.084Z,17.20
2018-08-23T01:46:30.764Z,15.73
2018-08-23T01:48:59.269Z,16.00
2018-08-23T01:51:27.778Z,15.70
2018-08-23T01:53:56.467Z,15.37
2018-08-23T01:56:24.918Z,16.50
2018-08-23T01:58:53.380Z,14.83
2018-08-23T02:01:22.632Z,16.00
2018-08-23T02:03:51.200Z,15.80
2018-08-23T02:06:19.753Z,17.47
2018-08-23T02:08:48.282Z,16.60
2018-08-23T02:11:16.738Z,16.63
2018-08-23T02:13:48.522Z,18.43
2018-08-23T02:16:16.966Z,20.57
2018-08-23T02:18:45.465Z,20.00
2018-08-23T02:21:13.942Z,20.80
2018-08-23T02:23:49.352Z,21.67
2018-08-23T02:26:17.864Z,21.40
2018-08-23T02:28:47.991Z,19.90
2018-08-23T02:31:16.815Z,21.63
2018-08-23T02:33:45.288Z,20.90
2018-08-23T02:36:16.826Z,22.00
2018-08-23T02:38:52.022Z,20.67
2018-08-23T02:41:20.777Z,21.47
2018-08-23T02:43:49.327Z,20.17
2018-08-23T02:46:17.934Z,21.10
2018-08-23T02:48:46.380Z,20.97
2018-08-23T02:51:14.859Z,20.03
2018-08-23T02:53:45.438Z,20.80
2018-08-23T02:56:16.598Z,21.23
2018-08-23T02:58:58.144Z,21.60
2018-08-23T03:01:30.421Z,21.07
2018-08-23T03:04:12.154Z,19.97
2018-08-23T03:07:13.009Z,21.20
2018-08-23T03:09:43.894Z,19.97
2018-08-23T03:12:14.365Z,20.53
2018-08-23T03:14:42.798Z,21.30
2018-08-23T03:17:18.332Z,20.40
2018-08-23T03:20:03.726Z,20.33
2018-08-23T03:22:33.349Z,20.83
2018-08-23T03:25:03.488Z,20.77
2018-08-23T03:27:32.440Z,20.47
2018-08-23T03:30:01.783Z,20.50
2018-08-23T03:32:30.637Z,21.67
2018-08-23T03:34:59.636Z,21.23
2018-08-23T03:37:28.322Z,21.63
2018-08-23T03:39:57.106Z,21.00
2018-08-23T03:42:26.100Z,23.03
2018-08-23T03:44:55.510Z,22.50
2018-08-23T03:47:24.499Z,22.57
2018-08-23T03:49:53.030Z,21.93
2018-08-23T03:52:23.071Z,20.57
2018-08-23T03:54:55.126Z,20.00
2018-08-23T03:57:23.623Z,19.70
2018-08-23T03:59:53.263Z,20.33
2018-08-23T04:02:22.154Z,19.53
2018-08-23T04:04:55.650Z,19.10
2018-08-23T04:07:24.233Z,19.13
2018-08-23T04:09:52.684Z,21.03
2018-08-23T04:12:21.328Z,23.20
2018-08-23T04:14:49.859Z,22.40
2018-08-23T04:17:18.300Z,26.67
2018-08-23T04:19:48.924Z,25.23
2018-08-23T04:22:17.907Z,26.37
2018-08-23T04:24:57.093Z,30.73
2018-08-23T04:27:25.702Z,27.33
2018-08-23T04:29:54.132Z,28.17
2018-08-23T04:32:28.203Z,29.80
2018-08-23T04:34:57.813Z,26.90
2018-08-23T04:37:26.821Z,27.67
2018-08-23T04:40:00.686Z,31.80
2018-08-23T04:42:29.111Z,30.00
2018-08-23T04:44:57.638Z,34.07
2018-08-23T04:47:26.085Z,31.93
2018-08-23T04:49:54.545Z,31.00
2018-08-23T04:52:23.109Z,37.77
2018-08-23T04:54:51.529Z,27.57
2018-08-23T04:57:20.019Z,34.37
2018-08-23T04:59:48.457Z,32.87
2018-08-23T05:02:17.070Z,33.20
2018-08-23T05:04:45.619Z,31.33
2018-08-23T05:07:14.143Z,31.90
2018-08-23T05:09:42.590Z,32.30
2018-08-23T05:12:11.220Z,32.30
2018-08-23T05:14:39.789Z,32.43
2018-08-23T05:17:08.254Z,29.07
2018-08-23T05:19:36.727Z,33.13
2018-08-23T05:22:05.207Z,30.07
2018-08-23T05:24:33.729Z,30.30
2018-08-23T05:27:02.215Z,32.40
2018-08-23T05:29:30.643Z,31.37
2018-08-23T05:31:59.147Z,31.43
2018-08-23T05:34:28.611Z,38.07
2018-08-23T05:36:57.146Z,33.97
2018-08-23T05:40:02.781Z,33.03
2018-08-23T05:42:47.053Z,32.13
2018-08-23T05:45:15.608Z,34.93
2018-08-23T05:47:44.141Z,33.93
2018-08-23T05:50:12.710Z,34.13
2018-08-23T05:52:41.265Z,34.13
2018-08-23T05:55:09.778Z,35.87
2018-08-23T05:57:38.408Z,38.17
2018-08-23T06:00:07.158Z,34.87
2018-08-23T06:02:35.727Z,38.00
2018-08-23T06:05:04.406Z,33.70
2018-08-23T06:07:32.994Z,38.73
2018-08-23T06:10:01.449Z,38.93
2018-08-23T06:12:32.312Z,44.80
2018-08-23T06:15:00.897Z,43.10
2018-08-23T06:17:29.359Z,47.07
2018-08-23T06:19:57.937Z,48.43
2018-08-23T06:22:26.417Z,47.43
2018-08-23T06:24:54.862Z,47.70
2018-08-23T06:27:23.447Z,52.67
2018-08-23T06:29:52.119Z,50.57
2018-08-23T06:32:20.574Z,49.97
2018-08-23T06:34:51.723Z,51.67
2018-08-23T06:37:21.664Z,49.47
2018-08-23T06:39:50.105Z,51.27
2018-08-23T06:42:18.840Z,48.17
2018-08-23T06:44:53.172Z,48.20
2018-08-23T06:47:23.278Z,43.90
2018-08-23T06:49:52.844Z,48.27
2018-08-23T06:52:29.033Z,49.47
2018-08-23T06:54:57.593Z,49.53
2018-08-23T06:57:27.417Z,50.17
2018-08-23T06:59:55.913Z,46.00
2018-08-23T07:02:24.458Z,51.10
2018-08-23T07:04:52.944Z,53.43
2018-08-23T07:07:21.422Z,53.30
2018-08-23T07:09:49.862Z,53.07
2018-08-23T07:12:18.377Z,56.57
2018-08-23T07:14:48.223Z,57.37
2018-08-23T07:17:22.244Z,53.30
2018-08-23T07:19:51.088Z,50.27
2018-08-23T07:22:25.798Z,49.70
2018-08-23T07:24:55.773Z,48.43
2018-08-23T07:27:24.456Z,48.87
2018-08-23T07:29:54.807Z,51.17
2018-08-23T07:32:24.552Z,48.93
2018-08-23T07:35:04.954Z,47.53
2018-08-23T07:37:35.540Z,48.90
2018-08-23T07:40:09.473Z,47.70
2018-08-23T07:42:38.807Z,49.80
2018-08-23T07:45:08.150Z,46.70
2018-08-23T07:47:42.900Z,46.57
2018-08-23T07:50:11.423Z,46.00
2018-08-23T07:52:44.197Z,43.00
2018-08-23T07:55:12.847Z,43.93
2018-08-23T07:57:41.878Z,43.13
2018-08-23T08:00:27.609Z,43.53
2018-08-23T08:02:56.199Z,40.67
2018-08-23T08:05:29.985Z,41.67
2018-08-23T08:07:58.469Z,39.73
2018-08-23T08:10:31.946Z,36.70
2018-08-23T08:13:00.611Z,34.57
2018-08-23T08:15:29.272Z,35.37
2018-08-23T08:18:06.958Z,37.10
2018-08-23T08:20:35.443Z,33.47
2018-08-23T08:23:03.935Z,38.07
2018-08-23T08:25:33.063Z,37.73
2018-08-23T08:28:01.623Z,35.20
2018-08-23T08:30:41.300Z,35.70
2018-08-23T08:33:11.551Z,39.63
2018-08-23T08:35:42.684Z,39.37
2018-08-23T08:38:12.287Z,35.70
2018-08-23T08:40:41.117Z,35.27
2018-08-23T08:43:09.617Z,30.57
2018-08-23T08:45:38.221Z,32.37
2018-08-23T08:48:23.685Z,30.50
2018-08-23T08:51:08.749Z,30.77
2018-08-23T08:53:37.229Z,33.27
2018-08-23T08:56:06.156Z,33.60
2018-08-23T08:58:34.941Z,31.47
2018-08-23T09:01:03.497Z,30.27
2018-08-23T09:03:33.960Z,29.37
2018-08-23T09:06:04.412Z,31.90
2018-08-23T09:08:33.322Z,27.03
2018-08-23T09:11:01.878Z,27.80
2018-08-23T09:13:35.694Z,27.57
2018-08-23T09:16:06.908Z,26.10
2018-08-23T09:18:36.575Z,24.10
2018-08-23T09:21:05.211Z,23.60
2018-08-23T09:23:34.437Z,22.43
2018-08-23T09:26:03.315Z,21.97
2018-08-23T09:28:31.893Z,23.47
2018-08-23T09:31:00.351Z,21.63
2018-08-23T09:33:29.471Z,23.97
2018-08-23T09:35:58.081Z,23.97
2018-08-23T09:38:26.581Z,24.63
2018-08-23T09:40:55.172Z,23.73
2018-08-23T09:43:23.697Z,25.10
2018-08-23T09:45:53.467Z,26.33
2018-08-23T09:48:22.264Z,24.73
2018-08-23T09:50:50.964Z,23.90
2018-08-23T09:53:24.855Z,23.00
2018-08-23T09:55:54.905Z,22.13
2018-08-23T09:58:28.885Z,22.23
2018-08-23T10:01:02.721Z,21.50
2018-08-23T10:03:36.577Z,22.77
2018-08-23T10:06:10.367Z,21.30
2018-08-23T10:08:44.620Z,19.30
2018-08-23T10:11:20.186Z,22.20
2018-08-23T10:13:53.937Z,21.30
2018-08-23T10:16:27.780Z,19.70
2018-08-23T10:19:02.440Z,19.43
2018-08-23T10:21:36.193Z,19.73
2018-08-23T10:24:15.421Z,19.83
2018-08-23T10:26:43.973Z,20.27
2018-08-23T10:29:12.382Z,18.30
2018-08-23T10:31:40.937Z,20.43
2018-08-23T10:34:09.414Z,18.97
2018-08-23T10:36:37.874Z,19.80
2018-08-23T10:39:09.178Z,17.97
2018-08-23T10:41:37.737Z,16.33
2018-08-23T10:44:06.634Z,15.27
2018-08-23T10:46:40.530Z,15.20
2018-08-23T10:49:08.995Z,14.97
2018-08-23T10:51:37.460Z,14.47
2018-08-23T10:54:06.030Z,14.33
2018-08-23T10:56:34.477Z,17.23
2018-08-23T10:59:03.096Z,15.10
2018-08-23T11:01:31.556Z,14.40
2018-08-23T11:04:04.211Z,14.33
2018-08-23T11:06:32.783Z,14.27
2018-08-23T11:09:06.720Z,13.33
2018-08-23T11:11:36.753Z,14.13
2018-08-23T11:14:10.466Z,13.43
2018-08-23T11:16:44.398Z,13.43
2018-08-23T11:19:18.197Z,14.10
2018-08-23T11:21:46.678Z,13.77
2018-08-23T11:24:15.206Z,12.93
2018-08-23T11:26:43.761Z,14.70
2018-08-23T11:29:12.228Z,11.43
2018-08-23T11:31:40.726Z,10.70
2018-08-23T11:34:09.302Z,10.40
2018-08-23T11:36:37.754Z,9.47
2018-08-23T11:39:08.370Z,10.17
2018-08-23T11:41:36.850Z,11.80
2018-08-23T11:44:05.446Z,9.30
2018-08-23T11:46:33.913Z,9.37
2018-08-23T11:49:02.474Z,9.83
2018-08-23T11:51:30.983Z,10.40
2018-08-23T11:53:59.525Z,10.87
2018-08-23T11:56:27.978Z,12.00
2018-08-23T11:58:56.491Z,11.97
2018-08-23T12:01:24.936Z,9.97
2018-08-23T12:03:53.396Z,10.87
2018-08-23T12:06:21.946Z,8.63
2018-08-23T12:08:50.379Z,11.43
2018-08-23T12:11:18.870Z,10.27
2018-08-23T12:13:49.194Z,8.97
2018-08-23T12:16:17.785Z,8.93
2018-08-23T12:18:46.404Z,9.13
2018-08-23T12:21:15.001Z,8.30
2018-08-23T12:23:43.490Z,9.53
2018-08-23T12:26:12.081Z,8.50
2018-08-23T12:28:45.950Z,7.30
2018-08-23T12:31:14.461Z,6.67
2018-08-23T12:33:43.115Z,7.10
2018-08-23T12:36:12.929Z,6.73
2018-08-23T12:38:46.703Z,6.27
2018-08-23T12:41:20.666Z,6.73
2018-08-23T12:43:51.680Z,6.90
2018-08-23T12:46:20.211Z,5.87
2018-08-23T12:48:48.793Z,4.73
2018-08-23T12:51:17.598Z,6.10
2018-08-23T12:53:46.077Z,5.37
2018-08-23T12:56:14.550Z,3.83
2018-08-23T12:58:43.057Z,4.00
2018-08-23T13:01:11.556Z,4.00
2018-08-23T13:03:40.193Z,5.07
2018-08-23T13:06:08.622Z,4.80
2018-08-23T13:08:37.173Z,3.30
2018-08-23T13:11:05.833Z,3.87
2018-08-23T13:13:34.267Z,3.60
2018-08-23T13:16:02.917Z,3.33
2018-08-23T13:18:31.393Z,4.23
2018-08-23T13:20:59.848Z,4.87
2018-08-23T13:23:28.311Z,5.97
2018-08-23T13:25:58.171Z,3.90
2018-08-23T13:28:27.552Z,3.50
2018-08-23T13:30:56.021Z,4.37
2018-08-23T13:33:25.508Z,5.07
2018-08-23T13:35:53.979Z,4.17
2018-08-23T13:38:22.445Z,4.00
2018-08-23T13:40:50.935Z,3.90
2018-08-23T13:43:19.449Z,5.17
2018-08-23T13:45:47.942Z,4.80
2018-08-23T13:48:16.479Z,3.60
2018-08-23T13:50:45.032Z,3.40
2018-08-23T13:53:13.513Z,4.53
2018-08-23T13:55:42.125Z,4.73
2018-08-23T13:58:10.652Z,3.90
2018-08-23T14:00:40.005Z,3.33
2018-08-23T14:03:09.367Z,3.67
2018-08-23T14:05:39.422Z,5.13
2018-08-23T14:08:08.756Z,5.20
2018-08-23T14:10:37.359Z,5.20
2018-08-23T14:13:06.113Z,6.90
2018-08-23T14:15:39.839Z,4.20
2018-08-23T14:18:08.625Z,3.40
2018-08-23T14:20:37.085Z,3.40
2018-08-23T14:23:05.541Z,3.20
2018-08-23T14:25:34.127Z,4.23
2018-08-23T14:28:02.547Z,4.40
2018-08-23T14:30:31.040Z,4.07
2018-08-23T14:32:59.538Z,7.23
2018-08-23T14:35:27.996Z,5.07
2018-08-23T14:37:56.541Z,3.20
2018-08-23T14:40:25.137Z,3.80
2018-08-23T14:42:53.672Z,5.23
2018-08-23T14:45:27.624Z,4.03
2018-08-23T14:48:01.436Z,3.77
2018-08-23T14:50:29.902Z,5.20
2018-08-23T14:52:58.721Z,5.30
2018-08-23T14:55:32.440Z,4.70
2018-08-23T14:58:00.886Z,4.33
2018-08-23T15:00:29.593Z,3.13
2018-08-23T15:02:58.117Z,3.80
2018-08-23T15:05:26.582Z,3.20
2018-08-23T15:07:55.109Z,3.70
2018-08-23T15:10:23.693Z,4.50
2018-08-23T15:12:52.391Z,2.83
2018-08-23T15:15:25.151Z,4.13
2018-08-23T15:17:53.633Z,3.90
2018-08-23T15:20:22.233Z,2.77
2018-08-23T15:22:50.744Z,3.40
2018-08-23T15:25:19.304Z,5.40
2018-08-23T15:27:47.824Z,3.83
2018-08-23T15:30:16.292Z,3.27
2018-08-23T15:32:44.985Z,4.43
2018-08-23T15:35:13.443Z,2.43
2018-08-23T15:37:41.903Z,2.87
2018-08-23T15:40:10.402Z,4.20
2018-08-23T15:42:38.980Z,3.83
2018-08-23T15:45:09.157Z,3.53
2018-08-23T15:47:37.616Z,2.43
2018-08-23T15:50:06.262Z,4.20
2018-08-23T15:52:34.715Z,2.60
2018-08-23T15:55:03.355Z,3.80
2018-08-23T15:57:31.865Z,3.13
2018-08-23T16:00:00.331Z,4.33
2018-08-23T16:02:28.919Z,2.37
2018-08-23T16:04:57.468Z,2.67
2018-08-23T16:07:25.925Z,5.80
2018-08-23T16:09:54.469Z,3.43
2018-08-23T16:12:23.044Z,2.83
2018-08-23T16:14:51.633Z,3.50
2018-08-23T16:17:25.587Z,2.83
2018-08-23T16:19:59.480Z,1.57
2018-08-23T16:22:28.266Z,1.93
2018-08-23T16:24:56.849Z,2.57
2018-08-23T16:27:25.415Z,3.03
2018-08-23T16:29:54.303Z,2.03
2018-08-23T16:32:28.105Z,3.43
2018-08-23T16:34:56.599Z,1.90
2018-08-23T16:37:25.075Z,1.83
2018-08-23T16:39:53.559Z,1.87
2018-08-23T16:42:22.122Z,2.57
2018-08-23T16:44:50.675Z,3.40
2018-08-23T16:47:19.299Z,4.27
2018-08-23T16:49:48.000Z,2.13
2018-08-23T16:52:16.578Z,2.10
2018-08-23T16:54:45.270Z,3.83
2018-08-23T16:57:14.162Z,1.70
2018-08-23T16:59:42.831Z,1.93
2018-08-23T17:02:11.306Z,2.50
2018-08-23T17:04:43.384Z,3.97
2018-08-23T17:07:13.010Z,1.70
2018-08-23T17:09:41.506Z,3.97
2018-08-23T17:12:10.270Z,3.23
2018-08-23T17:14:38.758Z,2.90
2018-08-23T17:17:12.544Z,3.93
2018-08-23T17:19:41.153Z,3.33
2018-08-23T17:22:09.597Z,3.17
2018-08-23T17:24:38.164Z,3.13
2018-08-23T17:27:06.513Z,2.03
2018-08-23T17:29:34.942Z,2.47
2018-08-23T17:32:03.543Z,2.20
2018-08-23T17:34:32.109Z,1.63
2018-08-23T17:37:00.562Z,1.90
2018-08-23T17:39:29.026Z,1.73
2018-08-23T17:41:57.589Z,4.23
2018-08-23T17:44:26.049Z,2.60
2018-08-23T17:46:54.500Z,1.73
2018-08-23T17:49:23.077Z,2.90
2018-08-23T17:51:51.587Z,2.33
2018-08-23T17:54:20.078Z,2.30
2018-08-23T17:56:48.753Z,2.90
2018-08-23T17:59:17.256Z,1.60
2018-08-23T18:01:45.729Z,1.80
2018-08-23T18:04:14.266Z,1.43
2018-08-23T18:06:42.757Z,3.07
2018-08-23T18:09:12.829Z,3.13
2018-08-23T18:11:41.636Z,1.50
2018-08-23T18:14:10.393Z,1.80
2018-08-23T18:16:44.341Z,6.37
2018-08-23T18:19:13.305Z,3.30
2018-08-23T18:21:42.597Z,2.17
2018-08-23T18:24:11.506Z,2.73
2018-08-23T18:26:39.979Z,2.90
2018-08-23T18:29:08.440Z,2.87
2018-08-23T18:31:36.957Z,2.10
2018-08-23T18:34:05.652Z,1.33
2018-08-23T18:36:34.921Z,2.30
2018-08-23T18:39:04.789Z,3.87
2018-08-23T18:41:33.476Z,2.17
2018-08-23T18:44:02.023Z,3.27
2018-08-23T18:46:30.489Z,2.10
2018-08-23T18:49:00.001Z,2.50
2018-08-23T18:51:30.946Z,2.30
2018-08-23T18:54:00.171Z,2.17
2018-08-23T18:56:29.568Z,1.40
2018-08-23T18:58:58.554Z,2.80
2018-08-23T19:01:27.013Z,2.07
2018-08-23T19:03:55.527Z,4.27
2018-08-23T19:06:29.327Z,2.90
2018-08-23T19:08:57.776Z,1.63
2018-08-23T19:11:26.389Z,1.77
2018-08-23T19:13:54.874Z,1.67
2018-08-23T19:16:28.802Z,2.63
2018-08-23T19:18:57.334Z,2.33
2018-08-23T19:21:25.927Z,3.03
2018-08-23T19:23:54.553Z,2.23
2018-08-23T19:26:23.028Z,3.33
2018-08-23T19:28:51.526Z,3.77
2018-08-23T19:31:20.091Z,2.30
2018-08-23T19:33:48.635Z,2.70
2018-08-23T19:36:17.092Z,2.70
2018-08-23T19:38:45.602Z,2.13
2018-08-23T19:41:14.065Z,1.93
2018-08-23T19:43:42.577Z,2.33
2018-08-23T19:46:16.333Z,2.63
2018-08-23T19:48:46.249Z,2.03
2018-08-23T19:51:14.813Z,1.50
2018-08-23T19:53:43.407Z,2.37
2018-08-23T19:56:11.959Z,1.67
2018-08-23T19:58:40.537Z,3.10
2018-08-23T20:01:08.998Z,4.27
2018-08-23T20:03:37.494Z,1.57
2018-08-23T20:06:06.213Z,3.17
2018-08-23T20:08:34.710Z,3.03
2018-08-23T20:11:03.237Z,2.30
2018-08-23T20:13:31.720Z,2.23
2018-08-23T20:16:00.230Z,1.57
2018-08-23T20:18:28.782Z,2.13
2018-08-23T20:20:57.310Z,3.17
2018-08-23T20:23:26.497Z,3.33
2018-08-23T20:25:55.042Z,2.87
2018-08-23T20:28:23.597Z,3.20
2018-08-23T20:30:52.168Z,2.93
2018-08-23T20:33:20.610Z,5.37
2018-08-23T20:35:58.210Z,4.13
2018-08-23T20:38:26.656Z,2.47
2018-08-23T20:40:55.096Z,5.40
2018-08-23T20:43:23.683Z,2.10
2018-08-23T20:45:52.212Z,2.63
2018-08-23T20:48:20.652Z,3.90
2018-08-23T20:50:49.133Z,2.30
2018-08-23T20:53:17.670Z,2.13
2018-08-23T20:55:46.131Z,2.93
2018-08-23T20:58:14.784Z,2.80
2018-08-23T21:00:43.164Z,3.03
2018-08-23T21:03:11.838Z,2.17
2018-08-23T21:05:40.292Z,5.77
2018-08-23T21:08:08.866Z,4.37
2018-08-23T21:10:37.303Z,3.63
2018-08-23T21:13:05.822Z,4.13
2018-08-23T21:15:37.512Z,3.73
2018-08-23T21:18:08.616Z,3.10
2018-08-23T21:20:37.158Z,2.37
2018-08-23T21:23:05.850Z,3.07
2018-08-23T21:25:34.431Z,2.20
2018-08-23T21:28:02.966Z,4.00
2018-08-23T21:30:31.647Z,2.43
2018-08-23T21:33:00.200Z,2.50
2018-08-23T21:35:28.624Z,3.83
2018-08-23T21:37:57.129Z,2.97
2018-08-23T21:40:25.608Z,2.63
2018-08-23T21:42:54.061Z,3.20
2018-08-23T21:45:22.523Z,2.37
2018-08-23T21:47:50.981Z,2.87
2018-08-23T21:50:19.477Z,4.93
2018-08-23T21:52:48.001Z,2.20
2018-08-23T21:55:16.533Z,2.73
2018-08-23T21:57:44.991Z,2.00
2018-08-23T22:00:13.493Z,3.50
2018-08-23T22:02:41.986Z,1.67
2018-08-23T22:05:10.477Z,2.60
2018-08-23T22:07:39.101Z,2.57
2018-08-23T22:10:07.649Z,3.03
2018-08-23T22:12:36.043Z,3.37
2018-08-23T22:15:04.793Z,2.87
2018-08-23T22:17:33.337Z,2.57
2018-08-23T22:20:01.775Z,2.47
2018-08-23T22:22:30.213Z,3.67
2018-08-23T22:24:58.683Z,4.93
2018-08-23T22:27:27.151Z,3.27
2018-08-23T22:29:55.611Z,3.83
2018-08-23T22:32:24.063Z,3.30
2018-08-23T22:34:52.592Z,3.60
2018-08-23T22:37:21.020Z,3.77
2018-08-23T22:39:49.469Z,4.40
2018-08-23T22:42:17.916Z,4.23
2018-08-23T22:44:46.369Z,3.73
2018-08-23T22:47:14.843Z,4.50
2018-08-23T22:49:43.454Z,4.97
2018-08-23T22:52:12.013Z,4.37
2018-08-23T22:54:40.449Z,3.10
2018-08-23T22:57:08.906Z,3.80
2018-08-23T22:59:37.422Z,5.13
2018-08-23T23:02:06.031Z,4.43
2018-08-23T23:04:34.460Z,4.33
2018-08-23T23:07:07.286Z,4.30
2018-08-23T23:09:36.200Z,5.20
2018-08-23T23:12:04.658Z,5.07
2018-08-23T23:14:33.116Z,4.20
2018-08-23T23:17:05.799Z,4.20
2018-08-23T23:19:34.271Z,3.90
2018-08-23T23:22:02.929Z,3.60
2018-08-23T23:24:36.748Z,5.30
2018-08-23T23:27:05.623Z,3.50
2018-08-23T23:29:34.060Z,4.23
2018-08-23T23:32:02.776Z,5.43
2018-08-23T23:34:31.330Z,4.83
2018-08-23T23:36:59.812Z,5.03
2018-08-23T23:39:28.253Z,5.77
2018-08-23T23:41:56.704Z,4.70
2018-08-23T23:44:25.187Z,2.97
2018-08-23T23:46:53.602Z,4.40
2018-08-23T23:49:22.030Z,7.40
2018-08-23T23:51:50.497Z,5.63
2018-08-23T23:54:19.026Z,4.70
2018-08-23T23:56:47.561Z,4.03
2018-08-23T23:59:16.077Z,5.57
